createdAt,value
2023-03-25T00:02:14.910Z,99817.22
2023-03-25T00:05:23.038Z,99815.47
2023-03-25T00:08:28.035Z,99815.94
2023-03-25T00:11:31.588Z,99812.03
2023-03-25T00:14:35.097Z,99807.53
2023-03-25T00:17:38.571Z,99809.91
2023-03-25T00:20:45.837Z,99802.47
2023-03-25T00:23:50.131Z,99790.22
2023-03-25T00:26:54.283Z,99786.44
2023-03-25T00:29:57.285Z,99788.69
2023-03-25T00:33:01.777Z,99791.88
2023-03-25T00:36:06.071Z,99785.97
2023-03-25T00:39:11.363Z,99783.63
2023-03-25T00:42:17.422Z,99790.91
2023-03-25T00:45:22.584Z,99793.56
2023-03-25T00:48:28.201Z,99797.75
2023-03-25T00:51:33.767Z,99798.06
2023-03-25T00:54:38.153Z,99794.66
2023-03-25T00:57:41.474Z,99792.28
2023-03-25T01:00:44.476Z,99793.06
2023-03-25T01:03:48.856Z,99796.41
2023-03-25T01:06:52.212Z,99796.75
2023-03-25T01:09:58.498Z,99792.72
2023-03-25T01:13:01.522Z,99799.22
2023-03-25T01:16:08.340Z,99794.50
2023-03-25T01:19:12.316Z,99799.31
2023-03-25T01:22:15.375Z,99790.13
2023-03-25T01:25:19.928Z,99788.28
2023-03-25T01:28:23.107Z,99776.81
2023-03-25T01:31:30.543Z,99776.69
2023-03-25T01:34:38.364Z,99774.44
2023-03-25T01:37:44.148Z,99768.78
2023-03-25T01:40:48.757Z,99755.34
2023-03-25T01:44:07.453Z,99760.06
2023-03-25T01:47:10.505Z,99745.44
2023-03-25T01:50:15.016Z,99748.72
2023-03-25T01:53:18.955Z,99749.06
2023-03-25T01:56:30.708Z,99750.72
2023-03-25T01:59:34.117Z,99749.06
2023-03-25T02:02:40.150Z,99745.84
2023-03-25T02:05:51.017Z,99740.00
2023-03-25T02:08:58.007Z,99745.16
2023-03-25T02:12:02.293Z,99748.25
2023-03-25T02:15:09.142Z,99732.47
2023-03-25T02:18:43.739Z,99727.72
2023-03-25T02:22:53.385Z,99722.53
2023-03-25T02:26:23.639Z,99716.31
2023-03-25T02:29:53.995Z,99707.00
2023-03-25T02:33:24.267Z,99703.97
2023-03-25T02:37:04.195Z,99696.44
2023-03-25T02:40:15.838Z,99699.50
2023-03-25T02:43:26.356Z,99697.13
2023-03-25T02:46:31.276Z,99690.28
2023-03-25T02:49:37.965Z,99688.66
2023-03-25T02:52:45.875Z,99683.47
2023-03-25T02:55:52.907Z,99684.06
2023-03-25T02:58:58.185Z,99677.59
2023-03-25T03:02:04.246Z,99665.91
2023-03-25T03:05:24.527Z,99669.19
2023-03-25T03:08:42.499Z,99673.34
2023-03-25T03:12:01.538Z,99672.63
2023-03-25T03:15:22.875Z,99676.66
2023-03-25T03:18:42.337Z,99670.28
2023-03-25T03:21:54.153Z,99678.78
2023-03-25T03:25:03.352Z,99675.56
2023-03-25T03:28:13.446Z,99679.44
2023-03-25T03:31:48.479Z,99684.19
2023-03-25T03:34:53.355Z,99695.72
2023-03-25T03:38:00.695Z,99701.75
2023-03-25T03:41:08.317Z,99700.56
2023-03-25T03:44:17.284Z,99704.13
2023-03-25T03:47:26.226Z,99693.72
2023-03-25T03:50:32.883Z,99693.13
2023-03-25T03:53:41.242Z,99688.06
2023-03-25T03:56:47.443Z,99683.09
2023-03-25T03:59:58.660Z,99686.66
2023-03-25T04:03:06.337Z,99685.84
2023-03-25T04:06:21.012Z,99670.13
2023-03-25T04:09:28.718Z,99672.97
2023-03-25T04:12:35.471Z,99681.81
2023-03-25T04:15:39.993Z,99672.25
2023-03-25T04:18:43.501Z,99673.09
2023-03-25T04:21:48.121Z,99676.75
2023-03-25T04:24:54.876Z,99674.03
2023-03-25T04:27:59.095Z,99670.75
2023-03-25T04:31:07.465Z,99668.84
2023-03-25T04:34:11.552Z,99672.97
2023-03-25T04:37:14.592Z,99663.44
2023-03-25T04:40:18.756Z,99677.09
2023-03-25T04:43:21.876Z,99664.81
2023-03-25T04:46:26.852Z,99673.41
2023-03-25T04:49:30.212Z,99662.00
2023-03-25T04:52:34.509Z,99673.06
2023-03-25T04:55:37.484Z,99664.31
2023-03-25T04:58:42.211Z,99666.22
2023-03-25T05:01:47.090Z,99664.13
2023-03-25T05:04:51.222Z,99665.91
2023-03-25T05:07:58.228Z,99663.78
2023-03-25T05:11:01.522Z,99667.44
2023-03-25T05:14:05.046Z,99660.59
2023-03-25T05:17:09.273Z,99664.59
2023-03-25T05:20:14.536Z,99657.06
2023-03-25T05:23:18.655Z,99664.63
2023-03-25T05:26:21.650Z,99665.56
2023-03-25T05:29:25.632Z,99672.88
2023-03-25T05:32:33.404Z,99663.22
2023-03-25T05:35:37.434Z,99659.31
2023-03-25T05:38:41.786Z,99658.97
2023-03-25T05:41:45.764Z,99661.56
2023-03-25T05:44:51.110Z,99664.84
2023-03-25T05:47:55.463Z,99663.81
2023-03-25T05:50:58.460Z,99665.66
2023-03-25T05:54:06.995Z,99669.31
2023-03-25T05:57:10.371Z,99677.19
2023-03-25T06:00:19.887Z,99681.91
2023-03-25T06:03:26.087Z,99683.19
2023-03-25T06:06:29.745Z,99686.34
2023-03-25T06:09:35.110Z,99695.00
2023-03-25T06:12:42.173Z,99696.50
2023-03-25T06:15:45.207Z,99702.53
2023-03-25T06:18:56.595Z,99720.34
2023-03-25T06:22:00.101Z,99705.22
2023-03-25T06:25:03.950Z,99717.38
2023-03-25T06:28:07.094Z,99720.94
2023-03-25T06:31:14.306Z,99725.03
2023-03-25T06:34:18.602Z,99730.34
2023-03-25T06:37:22.005Z,99731.25
2023-03-25T06:40:25.863Z,99729.81
2023-03-25T06:43:28.925Z,99733.81
2023-03-25T06:46:52.583Z,99733.31
2023-03-25T06:50:22.608Z,99731.41
2023-03-25T06:53:29.488Z,99721.00
2023-03-25T06:56:33.008Z,99733.31
2023-03-25T06:59:36.159Z,99726.22
2023-03-25T07:02:39.212Z,99717.97
2023-03-25T07:05:44.289Z,99723.41
2023-03-25T07:08:49.438Z,99735.09
2023-03-25T07:11:52.442Z,99734.09
2023-03-25T07:14:57.386Z,99740.31
2023-03-25T07:18:00.398Z,99747.63
2023-03-25T07:21:08.837Z,99744.38
2023-03-25T07:24:13.580Z,99748.47
2023-03-25T07:27:16.828Z,99758.34
2023-03-25T07:30:39.288Z,99755.47
2023-03-25T07:33:42.392Z,99736.25
2023-03-25T07:36:46.710Z,99754.75
2023-03-25T07:39:52.584Z,99757.38
2023-03-25T07:42:55.935Z,99757.31
2023-03-25T07:46:10.430Z,99758.34
2023-03-25T07:49:13.433Z,99762.88
2023-03-25T07:52:26.849Z,99756.50
2023-03-25T07:55:29.818Z,99759.38
2023-03-25T07:58:32.817Z,99770.22
2023-03-25T08:01:35.907Z,99759.41
2023-03-25T08:04:39.051Z,99765.97
2023-03-25T08:07:43.372Z,99772.31
2023-03-25T08:10:47.314Z,99747.50
2023-03-25T08:13:50.410Z,99760.78
2023-03-25T08:16:53.387Z,99759.94
2023-03-25T08:19:56.391Z,99766.16
2023-03-25T08:23:02.836Z,99769.06
2023-03-25T08:26:06.867Z,99758.63
2023-03-25T08:29:10.090Z,99758.94
2023-03-25T08:32:13.079Z,99773.63
2023-03-25T08:35:16.144Z,99758.63
2023-03-25T08:38:21.499Z,99761.81
2023-03-25T08:41:25.357Z,99753.72
2023-03-25T08:44:28.482Z,99757.28
2023-03-25T08:47:31.605Z,99754.50
2023-03-25T08:50:34.876Z,99752.88
2023-03-25T08:53:39.205Z,99765.50
2023-03-25T08:56:42.276Z,99750.66
2023-03-25T08:59:45.491Z,99744.91
2023-03-25T09:02:48.500Z,99747.81
2023-03-25T09:05:51.759Z,99744.25
2023-03-25T09:08:56.816Z,99745.72
2023-03-25T09:11:59.807Z,99734.75
2023-03-25T09:15:02.980Z,99763.84
2023-03-25T09:18:06.923Z,99756.44
2023-03-25T09:21:10.520Z,99747.38
2023-03-25T09:24:14.849Z,99756.72
2023-03-25T09:27:17.810Z,99754.25
2023-03-25T09:30:20.864Z,99752.59
2023-03-25T09:33:24.154Z,99756.28
2023-03-25T09:36:28.274Z,99760.00
2023-03-25T09:39:32.596Z,99766.31
2023-03-25T09:42:59.704Z,99764.66
2023-03-25T09:46:03.295Z,99770.72
2023-03-25T09:49:15.498Z,99767.41
2023-03-25T09:52:25.649Z,99783.75
2023-03-25T09:55:34.063Z,99771.81
2023-03-25T09:58:43.465Z,99756.69
2023-03-25T10:01:56.405Z,99761.25
2023-03-25T10:05:31.322Z,99753.38
2023-03-25T10:08:48.184Z,99765.44
2023-03-25T10:12:03.686Z,99755.44
2023-03-25T10:15:22.606Z,99764.91
2023-03-25T10:18:42.126Z,99752.59
2023-03-25T10:21:54.781Z,99744.34
2023-03-25T10:25:00.997Z,99755.09
2023-03-25T10:28:08.944Z,99747.38
2023-03-25T10:31:18.470Z,99748.19
2023-03-25T10:34:31.163Z,99743.44
2023-03-25T10:37:39.373Z,99742.63
2023-03-25T10:40:49.917Z,99752.56
2023-03-25T10:43:55.441Z,99755.00
2023-03-25T10:47:03.772Z,99754.78
2023-03-25T10:50:14.109Z,99742.22
2023-03-25T10:53:24.550Z,99741.09
2023-03-25T10:56:32.656Z,99732.31
2023-03-25T10:59:43.386Z,99733.09
2023-03-25T11:02:47.940Z,99733.09
2023-03-25T11:05:52.844Z,99715.69
2023-03-25T11:09:13.803Z,99729.22
2023-03-25T11:12:30.154Z,99722.22
2023-03-25T11:15:42.562Z,99735.19
2023-03-25T11:18:45.910Z,99726.50
2023-03-25T11:21:54.624Z,99729.69
2023-03-25T11:25:04.517Z,99722.06
2023-03-25T11:28:15.709Z,99705.53
2023-03-25T11:31:25.559Z,99695.75
2023-03-25T11:34:31.408Z,99713.00
2023-03-25T11:37:44.879Z,99719.03
2023-03-25T11:40:57.436Z,99706.09
2023-03-25T11:44:01.057Z,99710.84
2023-03-25T11:47:11.865Z,99699.53
2023-03-25T11:50:23.629Z,99713.78
2023-03-25T11:53:28.366Z,99715.16
2023-03-25T11:56:37.043Z,99723.78
2023-03-25T11:59:45.232Z,99713.75
2023-03-25T12:03:00.154Z,99711.88
2023-03-25T12:06:08.049Z,99696.66
2023-03-25T12:09:12.990Z,99704.13
2023-03-25T12:12:35.280Z,99686.47
2023-03-25T12:15:45.541Z,99681.00
2023-03-25T12:19:14.175Z,99677.69
2023-03-25T12:22:30.500Z,99679.06
2023-03-25T12:25:48.932Z,99675.03
2023-03-25T12:29:21.444Z,99665.09
2023-03-25T12:32:36.566Z,99681.63
2023-03-25T12:35:47.512Z,99669.75
2023-03-25T12:39:05.882Z,99663.09
2023-03-25T12:42:25.327Z,99663.06
2023-03-25T12:45:58.136Z,99654.56
2023-03-25T12:49:17.981Z,99661.66
2023-03-25T12:52:33.822Z,99645.13
2023-03-25T12:55:56.796Z,99649.84
2023-03-25T12:59:36.252Z,99643.34
2023-03-25T13:03:12.542Z,99653.47
2023-03-25T13:06:24.730Z,99640.06
2023-03-25T13:09:35.058Z,99640.34
2023-03-25T13:12:43.216Z,99636.34
2023-03-25T13:15:50.021Z,99632.13
2023-03-25T13:18:56.980Z,99644.47
2023-03-25T13:22:06.269Z,99650.50
2023-03-25T13:25:21.470Z,99672.00
2023-03-25T13:28:30.287Z,99695.78
2023-03-25T13:31:37.384Z,99693.09
2023-03-25T13:34:45.637Z,99691.72
2023-03-25T13:37:54.539Z,99693.88
2023-03-25T13:41:12.855Z,99726.22
2023-03-25T13:44:21.208Z,99720.78
2023-03-25T13:47:37.484Z,99691.03
2023-03-25T13:50:40.965Z,99702.25
2023-03-25T13:53:49.830Z,99705.53
2023-03-25T13:57:24.472Z,99704.28
2023-03-25T14:01:10.884Z,99714.97
2023-03-25T14:04:42.470Z,99708.56
2023-03-25T14:08:33.772Z,99703.69
2023-03-25T14:11:41.541Z,99700.81
2023-03-25T14:14:50.319Z,99699.53
2023-03-25T14:17:54.298Z,99686.41
2023-03-25T14:20:59.171Z,99690.25
2023-03-25T14:24:10.718Z,99687.94
2023-03-25T14:27:24.908Z,99691.94
2023-03-25T14:30:31.031Z,99698.66
2023-03-25T14:34:16.879Z,99681.94
2023-03-25T14:37:30.781Z,99680.94
2023-03-25T14:44:18.099Z,99689.34
2023-03-25T14:47:37.897Z,99671.25
2023-03-25T14:50:41.190Z,99652.38
2023-03-25T14:53:55.759Z,99652.53
2023-03-25T14:57:07.156Z,99647.16
2023-03-25T15:00:21.599Z,99659.38
2023-03-25T15:03:36.965Z,99654.66
2023-03-25T15:06:40.555Z,99653.41
2023-03-25T15:09:52.077Z,99650.03
2023-03-25T15:13:04.558Z,99637.47
2023-03-25T15:16:19.876Z,99649.75
2023-03-25T15:19:24.528Z,99633.50
2023-03-25T15:22:27.612Z,99637.47
2023-03-25T15:25:30.938Z,99627.59
2023-03-25T15:28:59.750Z,99627.97
2023-03-25T15:32:19.618Z,99638.81
2023-03-25T15:35:38.088Z,99629.16
2023-03-25T15:39:06.718Z,99633.59
2023-03-25T15:42:43.815Z,99629.53
2023-03-25T15:46:27.288Z,99632.63
2023-03-25T15:49:52.434Z,99639.09
2023-03-25T15:53:50.180Z,99634.53
2023-03-25T15:56:57.409Z,99619.72
2023-03-25T16:00:09.104Z,99629.56
2023-03-25T16:03:16.785Z,99631.25
2023-03-25T16:06:21.488Z,99626.59
2023-03-25T16:09:29.391Z,99626.88
2023-03-25T16:12:32.427Z,99634.56
2023-03-25T16:15:37.750Z,99641.69
2023-03-25T16:18:42.351Z,99648.84
2023-03-25T16:21:49.680Z,99659.00
2023-03-25T16:24:57.515Z,99685.09
2023-03-25T16:28:04.777Z,99693.06
2023-03-25T16:31:34.892Z,99710.34
2023-03-25T16:34:42.030Z,99711.91
2023-03-25T16:37:45.383Z,99698.16
2023-03-25T16:40:49.802Z,99686.91
2023-03-25T16:43:54.855Z,99680.69
2023-03-25T16:47:01.344Z,99674.09
2023-03-25T16:50:06.278Z,99681.34
2023-03-25T16:53:11.930Z,99680.53
2023-03-25T16:56:24.959Z,99683.00
2023-03-25T16:59:31.350Z,99671.16
2023-03-25T17:02:41.825Z,99675.41
2023-03-25T17:06:01.318Z,99677.75
2023-03-25T17:09:05.362Z,99677.28
2023-03-25T17:12:11.815Z,99675.16
2023-03-25T17:15:18.980Z,99668.97
2023-03-25T17:18:28.789Z,99669.56
2023-03-25T17:21:34.653Z,99668.59
2023-03-25T17:24:43.751Z,99666.38
2023-03-25T17:27:49.249Z,99698.03
2023-03-25T17:30:52.720Z,99710.38
2023-03-25T17:34:03.115Z,99713.03
2023-03-25T17:37:08.347Z,99698.47
2023-03-25T17:40:23.528Z,99688.06
2023-03-25T17:43:28.690Z,99691.41
2023-03-25T17:46:33.580Z,99702.78
2023-03-25T17:49:37.986Z,99702.63
2023-03-25T17:52:41.264Z,99695.66
2023-03-25T17:55:44.455Z,99697.56
2023-03-25T17:58:47.497Z,99701.66
2023-03-25T18:01:51.159Z,99695.03
2023-03-25T18:04:55.504Z,99693.72
2023-03-25T18:08:00.039Z,99689.91
2023-03-25T18:11:10.262Z,99696.63
2023-03-25T18:14:13.295Z,99693.88
2023-03-25T18:17:16.741Z,99691.56
2023-03-25T18:20:30.684Z,99681.66
2023-03-25T18:23:36.466Z,99695.88
2023-03-25T18:26:43.825Z,99688.72
2023-03-25T18:29:46.856Z,99699.34
2023-03-25T18:32:50.685Z,99693.03
2023-03-25T18:35:56.365Z,99685.59
2023-03-25T18:39:04.699Z,99686.44
2023-03-25T18:42:08.006Z,99682.88
2023-03-25T18:45:12.194Z,99682.72
2023-03-25T18:48:17.501Z,99689.19
2023-03-25T18:51:22.423Z,99692.50
2023-03-25T18:54:25.455Z,99695.56
2023-03-25T18:57:29.831Z,99694.34
2023-03-25T19:00:40.783Z,99693.28
2023-03-25T19:03:43.972Z,99694.28
2023-03-25T19:06:48.585Z,99690.72
2023-03-25T19:09:53.632Z,99688.94
2023-03-25T19:12:57.063Z,99694.28
2023-03-25T19:16:00.337Z,99686.59
2023-03-25T19:19:03.280Z,99690.28
2023-03-25T19:22:09.751Z,99696.75
2023-03-25T19:25:13.502Z,99708.22
2023-03-25T19:28:20.458Z,99733.69
2023-03-25T19:31:23.923Z,99723.28
2023-03-25T19:34:27.038Z,99724.34
2023-03-25T19:37:35.230Z,99738.94
2023-03-25T19:40:39.056Z,99721.34
2023-03-25T19:43:42.276Z,99706.41
2023-03-25T19:46:45.358Z,99696.19
2023-03-25T19:49:49.012Z,99688.78
2023-03-25T19:52:54.864Z,99675.19
2023-03-25T19:56:03.872Z,99683.81
2023-03-25T19:59:06.995Z,99683.81
2023-03-25T20:02:11.387Z,99686.53
2023-03-25T20:05:21.485Z,99686.53
2023-03-25T20:08:29.323Z,99688.41
2023-03-25T20:11:33.321Z,99685.63
2023-03-25T20:14:36.850Z,99682.84
2023-03-25T20:17:40.531Z,99672.38
2023-03-25T20:20:43.659Z,99679.94
2023-03-25T20:23:48.044Z,99675.47
2023-03-25T20:26:51.024Z,99672.28
2023-03-25T20:29:54.325Z,99675.81
2023-03-25T20:32:58.117Z,99674.28
2023-03-25T20:36:01.205Z,99673.13
2023-03-25T20:39:06.556Z,99682.00
2023-03-25T20:42:10.072Z,99672.44
2023-03-25T20:45:16.263Z,99674.25
2023-03-25T20:48:19.525Z,99676.47
2023-03-25T20:51:24.085Z,99677.31
2023-03-25T20:54:28.841Z,99683.44
2023-03-25T20:57:31.841Z,99669.91
2023-03-25T21:00:35.133Z,99679.69
2023-03-25T21:03:38.179Z,99675.31
2023-03-25T21:06:41.979Z,99664.81
2023-03-25T21:09:47.283Z,99666.72
2023-03-25T21:12:50.958Z,99659.16
2023-03-25T21:15:55.557Z,99666.94
2023-03-25T21:19:01.854Z,99674.25
2023-03-25T21:22:05.056Z,99675.56
2023-03-25T21:25:09.772Z,99681.38
2023-03-25T21:28:13.651Z,99680.66
2023-03-25T21:31:21.686Z,99672.41
2023-03-25T21:34:25.137Z,99664.63
2023-03-25T21:37:35.611Z,99665.78
2023-03-25T21:40:40.349Z,99658.94
2023-03-25T21:43:44.211Z,99661.06
2023-03-25T21:46:47.200Z,99648.81
2023-03-25T21:49:50.407Z,99641.97
2023-03-25T21:52:53.406Z,99646.56
2023-03-25T21:56:04.185Z,99646.69
2023-03-25T21:59:07.204Z,99646.00
2023-03-25T22:02:14.237Z,99647.28
2023-03-25T22:05:18.213Z,99644.78
2023-03-25T22:08:21.147Z,99641.03
2023-03-25T22:11:29.492Z,99636.56
2023-03-25T22:14:32.761Z,99638.22
2023-03-25T22:17:35.813Z,99641.84
2023-03-25T22:20:38.859Z,99640.31
2023-03-25T22:23:45.621Z,99644.56
2023-03-25T22:26:50.079Z,99629.00
2023-03-25T22:29:53.210Z,99639.97
2023-03-25T22:32:56.147Z,99634.78
2023-03-25T22:36:06.676Z,99632.06
2023-03-25T22:39:10.642Z,99627.50
2023-03-25T22:42:15.050Z,99627.38
2023-03-25T22:45:18.562Z,99632.28
2023-03-25T22:48:21.630Z,99627.84
2023-03-25T22:51:26.903Z,99637.97
2023-03-25T22:54:29.956Z,99635.28
2023-03-25T22:57:34.619Z,99632.69
2023-03-25T23:00:37.582Z,99632.56
2023-03-25T23:03:41.232Z,99629.94
2023-03-25T23:06:51.169Z,99627.94
2023-03-25T23:10:00.888Z,99636.56
2023-03-25T23:13:05.142Z,99636.56
2023-03-25T23:16:10.813Z,99639.84
2023-03-25T23:19:13.875Z,99646.56
2023-03-25T23:22:17.793Z,99640.53
2023-03-25T23:25:20.928Z,99644.09
2023-03-25T23:28:26.712Z,99648.44
2023-03-25T23:31:33.834Z,99650.91
2023-03-25T23:34:38.337Z,99646.56
2023-03-25T23:37:41.586Z,99652.34
2023-03-25T23:40:44.682Z,99656.69
2023-03-25T23:43:49.616Z,99658.34
2023-03-25T23:46:52.615Z,99661.91
2023-03-25T23:49:57.849Z,99675.00
2023-03-25T23:53:01.654Z,99673.09
2023-03-25T23:56:06.386Z,99671.44
2023-03-25T23:59:11.739Z,99677.69
